sensor_id;sensor_type;location;lat;lon;timestamp;pressure;altitude;pressure_sealevel;temperature;humidity
67377;BME280;54261;46.086;6.588;2022-12-08T00:00:33;91964.75;;;2.53;39.79
67377;BME280;54261;46.086;6.588;2022-12-08T00:05:35;91928.22;;;2.75;38.80
67377;BME280;54261;46.086;6.588;2022-12-08T00:10:56;91961.44;;;2.67;39.01
67377;BME280;54261;46.086;6.588;2022-12-08T00:15:59;91945.00;;;2.35;38.71
67377;BME280;54261;46.086;6.588;2022-12-08T00:21:02;91938.09;;;2.69;39.08
67377;BME280;54261;46.086;6.588;2022-12-08T00:26:04;91920.16;;;2.31;39.01
67377;BME280;54261;46.086;6.588;2022-12-08T00:31:08;91938.78;;;2.21;38.62
67377;BME280;54261;46.086;6.588;2022-12-08T00:36:13;91916.84;;;2.15;38.94
67377;BME280;54261;46.086;6.588;2022-12-08T00:41:18;91941.28;;;1.67;38.90
67377;BME280;54261;46.086;6.588;2022-12-08T00:46:41;91936.81;;;1.67;39.64
67377;BME280;54261;46.086;6.588;2022-12-08T00:51:43;91936.31;;;1.60;39.65
67377;BME280;54261;46.086;6.588;2022-12-08T00:56:45;91931.41;;;1.83;39.78
67377;BME280;54261;46.086;6.588;2022-12-08T01:01:47;91928.63;;;1.58;39.78
67377;BME280;54261;46.086;6.588;2022-12-08T01:06:50;91947.41;;;1.62;39.37
67377;BME280;54261;46.086;6.588;2022-12-08T01:11:52;91934.41;;;2.35;38.78
67377;BME280;54261;46.086;6.588;2022-12-08T01:16:54;91900.09;;;2.54;38.38
67377;BME280;54261;46.086;6.588;2022-12-08T01:21:56;91914.22;;;1.35;39.64
67377;BME280;54261;46.086;6.588;2022-12-08T01:26:58;91911.78;;;2.19;38.23
67377;BME280;54261;46.086;6.588;2022-12-08T01:32:00;91905.88;;;2.27;38.35
67377;BME280;54261;46.086;6.588;2022-12-08T01:37:02;91882.50;;;1.75;39.35
67377;BME280;54261;46.086;6.588;2022-12-08T01:42:04;91904.28;;;2.31;38.91
67377;BME280;54261;46.086;6.588;2022-12-08T01:47:07;91901.28;;;2.08;39.08
67377;BME280;54261;46.086;6.588;2022-12-08T01:52:25;91880.97;;;2.57;38.67
67377;BME280;54261;46.086;6.588;2022-12-08T01:57:56;91890.13;;;2.11;38.86
67377;BME280;54261;46.086;6.588;2022-12-08T02:03:04;91891.38;;;2.19;38.42
67377;BME280;54261;46.086;6.588;2022-12-08T02:08:10;91893.56;;;1.82;38.52
67377;BME280;54261;46.086;6.588;2022-12-08T02:13:16;91828.09;;;1.29;38.81
67377;BME280;54261;46.086;6.588;2022-12-08T02:23:45;91886.97;;;2.39;38.15
67377;BME280;54261;46.086;6.588;2022-12-08T02:39:42;91851.94;;;1.18;39.01
67377;BME280;54261;46.086;6.588;2022-12-08T02:44:54;91838.16;;;1.27;39.04
67377;BME280;54261;46.086;6.588;2022-12-08T02:49:57;91846.06;;;0.77;39.45
67377;BME280;54261;46.086;6.588;2022-12-08T02:55:08;91845.63;;;1.54;38.17
67377;BME280;54261;46.086;6.588;2022-12-08T03:00:45;91848.03;;;0.45;39.08
67377;BME280;54261;46.086;6.588;2022-12-08T03:11:11;91820.13;;;0.89;38.78
67377;BME280;54261;46.086;6.588;2022-12-08T03:16:21;91826.00;;;-0.21;39.29
67377;BME280;54261;46.086;6.588;2022-12-08T03:21:25;91816.94;;;-1.45;41.07
67377;BME280;54261;46.086;6.588;2022-12-08T03:26:38;91821.00;;;-0.80;41.81
67377;BME280;54261;46.086;6.588;2022-12-08T03:31:56;91823.09;;;-1.03;41.20
67377;BME280;54261;46.086;6.588;2022-12-08T03:36:59;91792.75;;;-0.07;40.43
67377;BME280;54261;46.086;6.588;2022-12-08T03:42:02;91786.97;;;-1.23;40.74
67377;BME280;54261;46.086;6.588;2022-12-08T03:47:04;91792.81;;;-0.48;40.21
67377;BME280;54261;46.086;6.588;2022-12-08T03:52:06;91794.75;;;0.27;39.44
67377;BME280;54261;46.086;6.588;2022-12-08T03:57:08;91786.97;;;0.67;38.74
67377;BME280;54261;46.086;6.588;2022-12-08T04:02:10;91763.88;;;0.28;38.08
67377;BME280;54261;46.086;6.588;2022-12-08T04:07:12;91745.66;;;0.26;37.55
67377;BME280;54261;46.086;6.588;2022-12-08T04:12:15;91773.78;;;0.57;36.72
67377;BME280;54261;46.086;6.588;2022-12-08T04:17:16;91739.56;;;0.31;36.56
67377;BME280;54261;46.086;6.588;2022-12-08T04:22:18;91740.88;;;-1.31;38.01
67377;BME280;54261;46.086;6.588;2022-12-08T04:27:21;91762.66;;;-3.01;42.83
67377;BME280;54261;46.086;6.588;2022-12-08T04:32:23;91733.66;;;-2.79;43.78
67377;BME280;54261;46.086;6.588;2022-12-08T04:37:24;91757.88;;;-1.75;40.73
67377;BME280;54261;46.086;6.588;2022-12-08T04:42:26;91758.00;;;-1.18;41.61
67377;BME280;54261;46.086;6.588;2022-12-08T04:47:28;91743.50;;;-2.10;40.38
67377;BME280;54261;46.086;6.588;2022-12-08T04:52:31;91754.94;;;-1.84;41.52
67377;BME280;54261;46.086;6.588;2022-12-08T04:57:33;91753.06;;;-2.42;42.66
67377;BME280;54261;46.086;6.588;2022-12-08T05:02:35;91738.78;;;-1.03;40.51
67377;BME280;54261;46.086;6.588;2022-12-08T05:07:38;91729.84;;;-0.81;39.75
67377;BME280;54261;46.086;6.588;2022-12-08T05:12:40;91729.53;;;-0.48;38.76
67377;BME280;54261;46.086;6.588;2022-12-08T05:17:42;91732.13;;;-0.38;39.01
67377;BME280;54261;46.086;6.588;2022-12-08T05:22:44;91736.84;;;-0.25;38.17
67377;BME280;54261;46.086;6.588;2022-12-08T05:27:46;91731.56;;;-0.19;37.81
67377;BME280;54261;46.086;6.588;2022-12-08T05:32:48;91721.84;;;-0.34;37.55
67377;BME280;54261;46.086;6.588;2022-12-08T05:37:51;91733.41;;;-0.20;37.59
67377;BME280;54261;46.086;6.588;2022-12-08T05:42:54;91703.97;;;-0.63;37.74
67377;BME280;54261;46.086;6.588;2022-12-08T05:47:56;91731.06;;;-0.21;37.36
67377;BME280;54261;46.086;6.588;2022-12-08T05:52:58;91705.84;;;-0.64;37.28
67377;BME280;54261;46.086;6.588;2022-12-08T05:58:02;91715.84;;;-1.33;38.49
67377;BME280;54261;46.086;6.588;2022-12-08T06:03:17;91702.16;;;-1.25;38.58
67377;BME280;54261;46.086;6.588;2022-12-08T06:08:20;91703.19;;;-0.64;38.13
67377;BME280;54261;46.086;6.588;2022-12-08T06:13:22;91699.78;;;-1.37;37.44
67377;BME280;54261;46.086;6.588;2022-12-08T06:18:24;91726.38;;;-1.23;38.25
67377;BME280;54261;46.086;6.588;2022-12-08T06:23:33;91734.81;;;-0.80;37.98
67377;BME280;54261;46.086;6.588;2022-12-08T06:28:36;91728.22;;;-0.67;37.70
67377;BME280;54261;46.086;6.588;2022-12-08T06:33:38;91690.06;;;-0.90;37.80
67377;BME280;54261;46.086;6.588;2022-12-08T06:38:40;91688.22;;;-1.20;37.49
67377;BME280;54261;46.086;6.588;2022-12-08T06:43:44;91726.69;;;-0.83;38.11
67377;BME280;54261;46.086;6.588;2022-12-08T06:48:46;91707.44;;;-0.78;37.78
67377;BME280;54261;46.086;6.588;2022-12-08T06:53:49;91702.97;;;-1.09;37.80
67377;BME280;54261;46.086;6.588;2022-12-08T06:58:51;91706.41;;;-2.09;39.69
67377;BME280;54261;46.086;6.588;2022-12-08T07:03:54;91692.69;;;-1.16;38.83
67377;BME280;54261;46.086;6.588;2022-12-08T07:08:55;91670.81;;;-1.16;38.27
67377;BME280;54261;46.086;6.588;2022-12-08T07:13:57;91684.53;;;-1.09;38.22
67377;BME280;54261;46.086;6.588;2022-12-08T07:19:00;91631.31;;;-1.42;37.91
67377;BME280;54261;46.086;6.588;2022-12-08T07:24:02;91669.00;;;-1.31;37.90
67377;BME280;54261;46.086;6.588;2022-12-08T07:29:04;91708.50;;;-1.16;39.06
67377;BME280;54261;46.086;6.588;2022-12-08T07:34:06;91699.53;;;-1.30;38.56
67377;BME280;54261;46.086;6.588;2022-12-08T07:39:08;91670.31;;;-1.24;38.94
67377;BME280;54261;46.086;6.588;2022-12-08T07:44:10;91676.34;;;-1.02;38.58
67377;BME280;54261;46.086;6.588;2022-12-08T07:49:12;91698.97;;;-0.81;38.19
67377;BME280;54261;46.086;6.588;2022-12-08T07:54:14;91663.94;;;-0.86;38.39
67377;BME280;54261;46.086;6.588;2022-12-08T07:59:16;91688.44;;;-0.70;38.33
67377;BME280;54261;46.086;6.588;2022-12-08T08:04:18;91695.03;;;-0.68;38.37
67377;BME280;54261;46.086;6.588;2022-12-08T08:09:20;91687.13;;;-0.68;38.14
67377;BME280;54261;46.086;6.588;2022-12-08T08:14:22;91676.88;;;-0.95;38.29
67377;BME280;54261;46.086;6.588;2022-12-08T08:19:24;91682.69;;;-1.14;38.95
67377;BME280;54261;46.086;6.588;2022-12-08T08:24:26;91655.28;;;-0.92;38.83
67377;BME280;54261;46.086;6.588;2022-12-08T08:29:28;91668.19;;;-1.06;38.21
67377;BME280;54261;46.086;6.588;2022-12-08T08:34:31;91643.13;;;-0.77;38.85
67377;BME280;54261;46.086;6.588;2022-12-08T08:39:34;91656.53;;;-0.58;38.38
67377;BME280;54261;46.086;6.588;2022-12-08T08:44:36;91644.16;;;-0.73;38.67
67377;BME280;54261;46.086;6.588;2022-12-08T08:49:40;91678.19;;;-0.72;38.82
67377;BME280;54261;46.086;6.588;2022-12-08T08:54:42;91664.97;;;-1.91;41.24
67377;BME280;54261;46.086;6.588;2022-12-08T08:59:44;91666.28;;;-1.78;42.35
67377;BME280;54261;46.086;6.588;2022-12-08T09:04:46;91676.34;;;-1.02;40.40
67377;BME280;54261;46.086;6.588;2022-12-08T09:09:49;91671.34;;;-0.83;41.05
67377;BME280;54261;46.086;6.588;2022-12-08T09:14:52;91641.78;;;-0.70;40.95
67377;BME280;54261;46.086;6.588;2022-12-08T09:19:54;91680.81;;;-0.72;41.03
67377;BME280;54261;46.086;6.588;2022-12-08T09:24:56;91615.53;;;-1.32;42.08
67377;BME280;54261;46.086;6.588;2022-12-08T09:29:58;91668.69;;;-0.88;42.26
67377;BME280;54261;46.086;6.588;2022-12-08T09:35:00;91640.25;;;-1.02;42.45
67377;BME280;54261;46.086;6.588;2022-12-08T09:40:03;91653.28;;;-0.29;42.09
67377;BME280;54261;46.086;6.588;2022-12-08T09:45:14;91667.38;;;-0.04;41.78
67377;BME280;54261;46.086;6.588;2022-12-08T09:50:27;91664.50;;;-2.41;45.58
67377;BME280;54261;46.086;6.588;2022-12-08T09:55:49;91628.16;;;-1.75;45.83
67377;BME280;54261;46.086;6.588;2022-12-08T10:00:53;91641.59;;;-1.15;44.12
67377;BME280;54261;46.086;6.588;2022-12-08T10:11:21;91591.38;;;0.43;43.04
67377;BME280;54261;46.086;6.588;2022-12-08T10:16:39;91576.41;;;1.70;41.80
67377;BME280;54261;46.086;6.588;2022-12-08T10:21:44;91601.84;;;-1.65;45.39
67377;BME280;54261;46.086;6.588;2022-12-08T10:26:48;91575.78;;;0.81;42.02
67377;BME280;54261;46.086;6.588;2022-12-08T10:31:50;91599.44;;;1.45;41.62
67377;BME280;54261;46.086;6.588;2022-12-08T10:36:56;91508.75;;;-2.90;47.20
67377;BME280;54261;46.086;6.588;2022-12-08T10:47:20;91533.63;;;-2.18;49.20
67377;BME280;54261;46.086;6.588;2022-12-08T10:52:23;91587.28;;;-5.01;54.80
67377;BME280;54261;46.086;6.588;2022-12-08T10:57:25;91584.91;;;-2.21;48.59
67377;BME280;54261;46.086;6.588;2022-12-08T11:02:27;91531.53;;;-5.24;54.60
67377;BME280;54261;46.086;6.588;2022-12-08T11:07:29;91530.00;;;-4.98;53.82
67377;BME280;54261;46.086;6.588;2022-12-08T11:12:31;91564.16;;;-5.10;55.87
67377;BME280;54261;46.086;6.588;2022-12-08T11:17:35;91562.19;;;-3.60;51.84
67377;BME280;54261;46.086;6.588;2022-12-08T11:22:42;91507.06;;;-4.36;52.88
67377;BME280;54261;46.086;6.588;2022-12-08T11:27:47;91547.41;;;-3.71;50.58
67377;BME280;54261;46.086;6.588;2022-12-08T11:32:54;91538.56;;;-4.58;52.81
67377;BME280;54261;46.086;6.588;2022-12-08T11:38:15;91530.16;;;-3.67;50.47
67377;BME280;54261;46.086;6.588;2022-12-08T11:49:08;91540.75;;;-2.98;49.63
67377;BME280;54261;46.086;6.588;2022-12-08T11:59:39;91543.00;;;-4.03;52.14
67377;BME280;54261;46.086;6.588;2022-12-08T12:04:58;91503.41;;;-3.16;49.89
67377;BME280;54261;46.086;6.588;2022-12-08T12:10:34;91535.84;;;-2.84;48.71
67377;BME280;54261;46.086;6.588;2022-12-08T12:21:13;91513.41;;;-0.64;44.41
67377;BME280;54261;46.086;6.588;2022-12-08T12:26:22;91503.16;;;-1.78;47.04
67377;BME280;54261;46.086;6.588;2022-12-08T12:31:30;91475.28;;;-1.95;46.75
67377;BME280;54261;46.086;6.588;2022-12-08T12:36:49;91483.16;;;0.38;41.93
67377;BME280;54261;46.086;6.588;2022-12-08T12:41:56;91468.44;;;-1.80;46.56
67377;BME280;54261;46.086;6.588;2022-12-08T12:47:00;91504.19;;;-2.15;48.60
67377;BME280;54261;46.086;6.588;2022-12-08T13:02:28;91495.53;;;-2.05;48.12
67377;BME280;54261;46.086;6.588;2022-12-08T13:07:34;91491.03;;;-2.10;47.75
67377;BME280;54261;46.086;6.588;2022-12-08T13:12:43;91479.16;;;1.62;43.71
67377;BME280;54261;46.086;6.588;2022-12-08T13:17:47;91478.19;;;0.01;42.08
67377;BME280;54261;46.086;6.588;2022-12-08T13:27:54;91467.31;;;3.34;37.89
67377;BME280;54261;46.086;6.588;2022-12-08T13:33:00;91452.78;;;3.68;38.21
67377;BME280;54261;46.086;6.588;2022-12-08T13:38:21;91421.41;;;4.62;37.39
67377;BME280;54261;46.086;6.588;2022-12-08T13:43:37;91429.31;;;5.16;37.79
67377;BME280;54261;46.086;6.588;2022-12-08T13:49:01;91393.28;;;5.10;36.40
67377;BME280;54261;46.086;6.588;2022-12-08T13:54:33;91414.06;;;5.48;36.99
67377;BME280;54261;46.086;6.588;2022-12-08T14:00:00;91391.25;;;5.16;34.78
67377;BME280;54261;46.086;6.588;2022-12-08T14:05:15;91379.59;;;6.14;34.90
67377;BME280;54261;46.086;6.588;2022-12-08T14:10:28;91379.81;;;5.06;34.91
67377;BME280;54261;46.086;6.588;2022-12-08T14:15:33;91375.69;;;5.67;33.28
67377;BME280;54261;46.086;6.588;2022-12-08T14:20:39;91368.28;;;4.30;33.71
67377;BME280;54261;46.086;6.588;2022-12-08T14:26:04;91369.56;;;3.64;36.05
67377;BME280;54261;46.086;6.588;2022-12-08T14:31:07;91391.03;;;2.47;36.80
67377;BME280;54261;46.086;6.588;2022-12-08T14:36:09;91394.28;;;4.74;34.67
67377;BME280;54261;46.086;6.588;2022-12-08T14:41:15;91396.59;;;5.33;34.02
67377;BME280;54261;46.086;6.588;2022-12-08T14:46:21;91401.72;;;5.79;34.74
67377;BME280;54261;46.086;6.588;2022-12-08T14:51:31;91408.75;;;0.36;41.13
67377;BME280;54261;46.086;6.588;2022-12-08T14:56:39;91377.13;;;2.08;38.86
67377;BME280;54261;46.086;6.588;2022-12-08T15:01:42;91396.84;;;3.05;38.77
67377;BME280;54261;46.086;6.588;2022-12-08T15:07:18;91390.56;;;4.43;37.13
67377;BME280;54261;46.086;6.588;2022-12-08T15:12:23;91363.22;;;4.51;35.92
67377;BME280;54261;46.086;6.588;2022-12-08T15:22:32;91344.34;;;3.53;36.13
67377;BME280;54261;46.086;6.588;2022-12-08T15:27:34;91366.69;;;3.75;37.26
67377;BME280;54261;46.086;6.588;2022-12-08T15:32:51;91355.19;;;4.74;34.77
67377;BME280;54261;46.086;6.588;2022-12-08T15:37:54;91348.72;;;2.98;37.07
67377;BME280;54261;46.086;6.588;2022-12-08T15:42:56;91341.25;;;4.28;34.70
67377;BME280;54261;46.086;6.588;2022-12-08T15:47:59;91334.56;;;3.03;36.82
67377;BME280;54261;46.086;6.588;2022-12-08T15:53:01;91377.97;;;4.66;34.81
67377;BME280;54261;46.086;6.588;2022-12-08T15:58:03;91361.19;;;3.94;35.55
67377;BME280;54261;46.086;6.588;2022-12-08T16:03:27;91358.75;;;3.61;36.34
67377;BME280;54261;46.086;6.588;2022-12-08T16:08:49;91351.84;;;3.74;35.19
67377;BME280;54261;46.086;6.588;2022-12-08T16:14:11;91337.06;;;3.81;35.16
67377;BME280;54261;46.086;6.588;2022-12-08T16:19:33;91381.81;;;4.51;33.99
67377;BME280;54261;46.086;6.588;2022-12-08T16:24:35;91380.31;;;1.58;38.80
67377;BME280;54261;46.086;6.588;2022-12-08T16:29:37;91382.22;;;2.80;36.44
67377;BME280;54261;46.086;6.588;2022-12-08T16:34:40;91387.94;;;3.61;36.59
67377;BME280;54261;46.086;6.588;2022-12-08T16:39:42;91380.31;;;3.82;35.47
67377;BME280;54261;46.086;6.588;2022-12-08T16:44:46;91363.09;;;3.56;36.59
67377;BME280;54261;46.086;6.588;2022-12-08T16:49:48;91335.47;;;3.35;35.18
67377;BME280;54261;46.086;6.588;2022-12-08T16:54:50;91387.31;;;4.23;35.66
67377;BME280;54261;46.086;6.588;2022-12-08T16:59:52;91365.47;;;3.81;35.13
67377;BME280;54261;46.086;6.588;2022-12-08T17:04:54;91312.22;;;3.54;35.83
67377;BME280;54261;46.086;6.588;2022-12-08T17:09:57;91335.91;;;3.51;36.84
67377;BME280;54261;46.086;6.588;2022-12-08T17:15:01;91346.47;;;3.05;37.54
67377;BME280;54261;46.086;6.588;2022-12-08T17:20:06;91368.56;;;4.20;36.66
67377;BME280;54261;46.086;6.588;2022-12-08T17:25:09;91366.69;;;4.61;35.19
67377;BME280;54261;46.086;6.588;2022-12-08T17:30:11;91348.53;;;3.68;35.86
67377;BME280;54261;46.086;6.588;2022-12-08T17:35:16;91355.94;;;3.80;35.37
67377;BME280;54261;46.086;6.588;2022-12-08T17:40:18;91365.28;;;4.00;35.97
67377;BME280;54261;46.086;6.588;2022-12-08T17:45:20;91363.00;;;3.84;36.02
67377;BME280;54261;46.086;6.588;2022-12-08T17:50:22;91348.22;;;3.92;35.06
67377;BME280;54261;46.086;6.588;2022-12-08T17:55:24;91348.09;;;3.75;35.55
67377;BME280;54261;46.086;6.588;2022-12-08T18:00:26;91334.53;;;3.53;36.34
67377;BME280;54261;46.086;6.588;2022-12-08T18:05:29;91313.38;;;4.17;36.11
67377;BME280;54261;46.086;6.588;2022-12-08T18:10:31;91305.09;;;3.41;36.24
67377;BME280;54261;46.086;6.588;2022-12-08T18:15:33;91309.84;;;3.98;36.91
67377;BME280;54261;46.086;6.588;2022-12-08T18:20:40;91307.19;;;3.53;36.50
67377;BME280;54261;46.086;6.588;2022-12-08T18:25:42;91308.88;;;3.03;37.08
67377;BME280;54261;46.086;6.588;2022-12-08T18:30:44;91261.56;;;2.96;37.15
67377;BME280;54261;46.086;6.588;2022-12-08T18:35:47;91300.91;;;3.03;38.22
67377;BME280;54261;46.086;6.588;2022-12-08T18:40:49;91285.38;;;3.56;36.49
67377;BME280;54261;46.086;6.588;2022-12-08T18:45:59;91285.38;;;3.33;37.52
67377;BME280;54261;46.086;6.588;2022-12-08T18:51:02;91278.06;;;3.16;36.84
67377;BME280;54261;46.086;6.588;2022-12-08T18:56:06;91252.81;;;3.64;37.00
67377;BME280;54261;46.086;6.588;2022-12-08T19:01:13;91262.66;;;3.64;37.46
67377;BME280;54261;46.086;6.588;2022-12-08T19:06:18;91284.47;;;4.15;36.60
67377;BME280;54261;46.086;6.588;2022-12-08T19:11:23;91263.09;;;3.57;37.14
67377;BME280;54261;46.086;6.588;2022-12-08T19:16:26;91207.91;;;3.45;36.85
67377;BME280;54261;46.086;6.588;2022-12-08T19:21:29;91270.41;;;2.78;38.19
67377;BME280;54261;46.086;6.588;2022-12-08T19:26:31;91282.28;;;3.63;37.54
67377;BME280;54261;46.086;6.588;2022-12-08T19:31:33;91245.59;;;3.88;37.02
67377;BME280;54261;46.086;6.588;2022-12-08T19:36:36;91258.13;;;3.41;38.37
67377;BME280;54261;46.086;6.588;2022-12-08T19:41:43;91257.72;;;3.80;37.54
67377;BME280;54261;46.086;6.588;2022-12-08T19:47:04;91202.09;;;3.66;36.22
67377;BME280;54261;46.086;6.588;2022-12-08T19:52:06;91241.97;;;4.06;35.20
67377;BME280;54261;46.086;6.588;2022-12-08T19:57:09;91251.47;;;2.84;37.11
67377;BME280;54261;46.086;6.588;2022-12-08T20:02:12;91251.63;;;2.23;38.03
67377;BME280;54261;46.086;6.588;2022-12-08T20:07:14;91245.88;;;2.86;37.22
67377;BME280;54261;46.086;6.588;2022-12-08T20:12:16;91262.97;;;3.94;36.48
67377;BME280;54261;46.086;6.588;2022-12-08T20:17:19;91233.41;;;3.86;35.79
67377;BME280;54261;46.086;6.588;2022-12-08T20:22:21;91241.31;;;3.46;36.58
67377;BME280;54261;46.086;6.588;2022-12-08T20:27:23;91242.09;;;4.10;35.27
67377;BME280;54261;46.086;6.588;2022-12-08T20:32:26;91240.94;;;3.93;34.92
67377;BME280;54261;46.086;6.588;2022-12-08T20:37:28;91270.28;;;2.97;36.90
67377;BME280;54261;46.086;6.588;2022-12-08T20:42:30;91291.69;;;-1.87;46.84
67377;BME280;54261;46.086;6.588;2022-12-08T20:47:32;91283.59;;;0.37;43.16
67377;BME280;54261;46.086;6.588;2022-12-08T20:52:34;91287.41;;;1.59;40.67
67377;BME280;54261;46.086;6.588;2022-12-08T20:57:38;91292.53;;;0.16;43.16
67377;BME280;54261;46.086;6.588;2022-12-08T21:02:40;91289.09;;;1.55;41.23
67377;BME280;54261;46.086;6.588;2022-12-08T21:07:50;91270.00;;;2.98;39.84
67377;BME280;54261;46.086;6.588;2022-12-08T21:12:52;91234.75;;;3.43;38.12
67377;BME280;54261;46.086;6.588;2022-12-08T21:17:54;91218.09;;;3.83;38.63
67377;BME280;54261;46.086;6.588;2022-12-08T21:22:56;91213.03;;;2.96;39.16
67377;BME280;54261;46.086;6.588;2022-12-08T21:27:59;91220.06;;;0.52;42.48
67377;BME280;54261;46.086;6.588;2022-12-08T21:33:01;91213.25;;;2.99;39.11
67377;BME280;54261;46.086;6.588;2022-12-08T21:38:05;91196.81;;;1.96;39.25
67377;BME280;54261;46.086;6.588;2022-12-08T21:43:07;91235.09;;;2.82;39.38
67377;BME280;54261;46.086;6.588;2022-12-08T21:48:09;91260.72;;;1.89;41.09
67377;BME280;54261;46.086;6.588;2022-12-08T21:53:12;91271.91;;;1.86;40.83
67377;BME280;54261;46.086;6.588;2022-12-08T21:58:14;91183.03;;;1.85;39.76
67377;BME280;54261;46.086;6.588;2022-12-08T22:03:16;91239.06;;;2.94;39.14
67377;BME280;54261;46.086;6.588;2022-12-08T22:08:19;91255.34;;;0.61;42.80
67377;BME280;54261;46.086;6.588;2022-12-08T22:13:21;91237.44;;;-2.75;50.87
67377;BME280;54261;46.086;6.588;2022-12-08T22:18:23;91245.41;;;1.25;42.89
67377;BME280;54261;46.086;6.588;2022-12-08T22:23:27;91228.66;;;-0.29;44.40
67377;BME280;54261;46.086;6.588;2022-12-08T22:28:35;91233.50;;;-1.01;47.88
67377;BME280;54261;46.086;6.588;2022-12-08T22:33:38;91244.97;;;0.84;45.68
67377;BME280;54261;46.086;6.588;2022-12-08T22:38:41;91218.28;;;1.66;41.91
67377;BME280;54261;46.086;6.588;2022-12-08T22:43:43;91228.50;;;2.15;41.05
67377;BME280;54261;46.086;6.588;2022-12-08T22:48:46;91197.91;;;1.06;41.76
67377;BME280;54261;46.086;6.588;2022-12-08T22:53:49;91266.13;;;2.26;40.29
67377;BME280;54261;46.086;6.588;2022-12-08T22:58:51;91263.44;;;1.70;40.67
67377;BME280;54261;46.086;6.588;2022-12-08T23:03:54;91246.13;;;-3.16;51.78
67377;BME280;54261;46.086;6.588;2022-12-08T23:08:56;91222.66;;;-0.35;46.57
67377;BME280;54261;46.086;6.588;2022-12-08T23:13:59;91236.69;;;-1.39;47.38
67377;BME280;54261;46.086;6.588;2022-12-08T23:19:01;91196.25;;;0.33;44.34
67377;BME280;54261;46.086;6.588;2022-12-08T23:24:04;91217.28;;;-0.00;44.85
67377;BME280;54261;46.086;6.588;2022-12-08T23:29:06;91196.91;;;0.82;44.07
67377;BME280;54261;46.086;6.588;2022-12-08T23:34:09;91222.53;;;1.01;41.58
67377;BME280;54261;46.086;6.588;2022-12-08T23:39:11;91210.22;;;1.10;43.97
67377;BME280;54261;46.086;6.588;2022-12-08T23:44:13;91199.06;;;2.30;41.61
67377;BME280;54261;46.086;6.588;2022-12-08T23:49:16;91176.34;;;0.41;43.70
67377;BME280;54261;46.086;6.588;2022-12-08T23:54:18;91067.50;;;0.96;43.75
67377;BME280;54261;46.086;6.588;2022-12-08T23:59:20;91137.91;;;2.04;42.83
